Latest Weather Observations for Mackay Racecourse

IDQ60801

Issued at 11:02 pm EST Saturday 25 February 2017 (issued every 30 minutes, with the page automatically refreshed every 10 minutes)

About weather observations | Map of weather stations | Latest weather observations for QLD | Other Formats
Station Details ID: 033329 Name: OORALEA RACECOURSE (MACKAY TURF CLUB) Lat: -21.17 Lon: 149.15 Height: 10.31 m
Data from the previous 72 hours. | See also: Recent months for locations in Queensland
Date/Time
EST
Temp
°C
App
Temp
°C
Dew
Point
°C
Rel
Hum
%
Delta-T
°C
Wind Press
QNH
hPa
Press
MSL
hPa
Rain since
9am
mm
Dir  Spd
km/h
Gust
km/h
Spd
kts
Gust
kts
25/10:30pm 27.4 30.1 22.1 73 3.6 E 11 19 6 10 - - 0.0
25/10:00pm 27.5 30.2 22.2 73 3.6 ESE 11 19 6 10 - - 0.0
25/09:30pm 27.7 29.3 22.2 72 3.7 ESE 17 24 9 13 - - 0.0
25/09:00pm 27.6 30.0 23.0 76 3.1 SE 15 22 8 12 - - 0.0
25/08:30pm 27.6 30.0 22.3 73 3.6 ESE 13 22 7 12 - - 0.0
25/08:00pm 27.7 30.2 22.4 73 3.6 ESE 13 19 7 10 - - 0.0
25/07:30pm 27.6 29.9 22.1 72 3.7 SE 13 24 7 13 - - 0.0
25/07:00pm 27.5 29.4 22.0 72 3.7 ESE 15 20 8 11 - - 0.0
25/06:30pm 27.8 29.2 21.1 67 4.4 ESE 15 24 8 13 - - 0.0
25/06:00pm 28.2 30.0 21.2 65 4.7 SE 13 20 7 11 - - 0.0
25/05:30pm 28.4 29.6 21.4 66 4.7 ESE 17 24 9 13 - - 0.0
25/05:00pm 28.6 29.7 21.9 67 4.5 ESE 19 28 10 15 - - 0.0
25/04:30pm 29.5 30.3 21.7 63 5.2 ESE 20 30 11 16 - - 0.0
25/04:00pm 29.4 30.3 21.9 64 5.1 ESE 20 30 11 16 - - 0.0
25/03:30pm 29.5 29.9 20.9 60 5.7 ESE 20 32 11 17 - - 0.0
25/03:00pm 29.8 30.8 21.7 61 5.5 ESE 19 32 10 17 - - 0.0
25/02:30pm 30.0 30.5 20.8 57 6.1 ESE 19 28 10 15 - - 0.0
25/02:00pm 29.6 29.9 20.5 58 6.0 ESE 19 32 10 17 - - 0.0
25/01:30pm 30.0 30.5 20.8 57 6.1 ESE 19 30 10 16 - - 0.0
25/01:00pm 29.7 30.0 20.8 58 5.9 ESE 20 32 11 17 - - 0.0
25/12:30pm 29.7 29.8 21.1 60 5.7 ESE 22 32 12 17 - - 0.0
25/12:00pm 29.9 30.3 21.8 62 5.5 ESE 22 32 12 17 - - 0.0
25/11:30am 30.1 31.2 23.0 65 4.9 ESE 22 32 12 17 - - 0.0
25/11:00am 29.4 30.0 22.1 65 4.9 ESE 22 32 12 17 - - 0.0
25/10:30am 29.7 30.2 21.9 63 5.3 ESE 22 32 12 17 - - 0.0
25/10:00am 29.4 30.1 21.6 63 5.2 ESE 20 30 11 16 - - 0.0
25/09:30am 28.8 32.1 23.9 75 3.4 SSE 13 20 7 11 - - 0.0
25/09:00am 27.9 31.5 24.3 81 2.5 SSE 13 17 7 9 - - 12.2
25/08:30am 26.4 30.9 23.9 86 1.7 ESE 7 13 4 7 - - 12.2
25/08:00am 25.4 30.8 24.5 95 0.6 ESE 4 9 2 5 - - 11.8
25/07:30am 24.9 29.2 23.7 93 0.8 ESE 7 9 4 5 - - 7.0
25/07:00am 24.6 29.1 23.7 95 0.6 ESE 6 7 3 4 - - 7.0
25/06:30am 23.5 28.1 23.2 98 0.2 ESE 4 7 2 4 - - 7.0
25/06:00am 23.3 27.4 23.0 98 0.2 ESE 6 7 3 4 - - 7.0
25/05:30am 23.2 28.0 22.9 98 0.2 ESE 2 4 1 2 - - 7.0
25/05:00am 23.2 27.2 22.7 97 0.3 ESE 6 9 3 5 - - 7.0
25/04:30am 23.6 27.7 22.9 96 0.5 ESE 6 9 3 5 - - 7.0
25/04:00am 23.8 28.1 23.3 97 0.3 ESE 6 9 3 5 - - 7.0
25/03:30am 23.8 28.2 22.8 94 0.7 ESE 4 6 2 3 - - 7.0
25/03:00am 23.7 27.8 23.0 96 0.5 ESE 6 11 3 6 - - 7.0
25/02:30am 24.0 29.4 23.3 96 0.5 CALM 0 0 0 0 - - 7.0
25/02:00am 24.0 29.2 23.5 97 0.3 ESE 2 7 1 4 - - 6.8
25/01:30am 23.9 28.1 23.4 97 0.3 ESE 7 9 4 5 - - 6.8
25/01:00am 23.9 28.5 23.2 96 0.5 ESE 4 7 2 4 - - 6.8
25/12:30am 24.0 28.1 23.3 96 0.5 ESE 7 9 4 5 - - 6.8
25/12:00am 24.2 28.5 23.3 95 0.6 ESE 6 7 3 4 - - 6.8
 
Date/Time
EST
Temp
°C
App
Temp
°C
Dew
Point
°C
Rel
Hum
%
Delta-T
°C
Wind Press
QNH
hPa
Press
MSL
hPa
Rain since
9am
mm
Dir  Spd
km/h
Gust
km/h
Spd
kts
Gust
kts
24/11:30pm 24.3 29.4 23.3 94 0.7 ESE 2 6 1 3 - - 6.8
24/11:00pm 24.8 29.8 23.9 95 0.6 ESE 4 6 2 3 - - 6.8
24/10:30pm 24.9 29.7 23.5 92 1.0 ESE 4 7 2 4 - - 6.8
24/10:00pm 27.2 31.2 23.7 81 2.4 ESE 9 13 5 7 - - 6.6
24/09:30pm 27.0 30.8 23.5 81 2.4 E 9 13 5 7 - - 6.6
24/09:00pm 26.8 30.1 22.6 78 2.8 E 9 15 5 8 - - 6.6
24/08:30pm 26.0 30.8 24.2 90 1.2 E 6 9 3 5 - - 6.6
24/08:00pm 25.8 30.9 24.6 93 0.8 E 6 7 3 4 - - 6.6
24/07:30pm 26.5 32.3 25.1 92 1.0 E 4 7 2 4 - - 6.6
24/07:00pm 26.1 31.0 24.3 90 1.2 E 6 9 3 5 - - 6.6
24/06:30pm 25.6 30.9 24.4 93 0.8 E 4 7 2 4 - - 6.6
24/06:00pm 25.2 27.1 22.7 86 1.7 E 17 33 9 18 - - 4.0
24/05:30pm 27.9 30.7 23.7 78 2.9 E 15 20 8 11 - - 0.4
24/05:00pm 28.7 31.7 24.0 76 3.3 E 15 24 8 13 - - 0.4
24/04:30pm 29.4 31.2 23.6 71 4.0 ESE 20 26 11 14 - - 0.4
24/04:00pm 29.8 31.7 23.5 69 4.3 ESE 19 28 10 15 - - 0.4
24/03:30pm 29.4 31.4 23.6 71 4.0 ESE 19 28 10 15 - - 0.4
24/03:00pm 29.5 30.0 22.7 67 4.6 ESE 24 33 13 18 - - 0.4
24/02:30pm 29.9 32.4 24.8 74 3.6 ESE 20 32 11 17 - - 0.4
24/02:00pm 30.1 32.4 23.5 67 4.6 SE 17 24 9 13 - - 0.4
24/01:30pm 29.8 31.5 23.0 67 4.7 SE 19 28 10 15 - - 0.4
24/01:00pm 29.6 31.5 22.1 64 5.1 SE 15 22 8 12 - - 0.4
24/12:30pm 26.8 28.1 23.3 81 2.4 SSE 22 35 12 19 - - 0.4
24/12:00pm 29.3 31.1 23.3 70 4.1 SE 19 30 10 16 - - 0.4
24/11:30am 28.0 29.5 22.7 73 3.6 SE 19 30 10 16 - - 0.4
24/11:00am 26.8 28.6 24.3 86 1.7 SE 22 35 12 19 - - 0.4
24/10:30am 26.9 29.6 24.7 88 1.5 SE 19 32 10 17 - - 0.2
24/10:00am 28.2 29.0 23.1 74 3.5 SE 24 37 13 20 - - 0.0
24/09:30am 29.1 30.8 24.0 74 3.5 SE 22 32 12 17 - - 0.0
24/09:00am 28.7 31.1 24.3 77 3.1 SE 19 28 10 15 - - 4.4
24/08:30am 27.9 30.6 24.1 80 2.6 SSE 17 33 9 18 - - 4.4
24/08:00am 27.1 29.1 23.6 81 2.4 SSE 19 28 10 15 - - 4.4
24/07:30am 26.2 28.9 23.5 85 1.8 S 15 24 8 13 - - 4.4
24/07:00am 25.0 28.4 23.4 91 1.1 S 11 15 6 8 - - 4.4
24/06:30am 24.4 28.1 23.2 93 0.8 SSE 9 15 5 8 - - 4.4
24/06:00am 23.9 28.0 22.9 94 0.7 SSE 6 9 3 5 - - 4.4
24/05:30am 24.1 28.0 22.9 93 0.8 SSE 7 11 4 6 - - 4.4
24/05:00am 24.5 27.2 22.9 91 1.1 SSE 13 19 7 10 - - 4.4
24/04:30am 24.2 27.4 23.0 93 0.8 SSE 11 17 6 9 - - 4.4
24/04:00am 23.9 27.5 23.0 95 0.6 SSE 9 15 5 8 - - 4.4
24/03:30am 24.2 28.3 23.0 93 0.8 SSE 6 9 3 5 - - 4.4
24/03:00am 24.7 28.3 23.1 91 1.1 SSE 9 13 5 7 - - 4.4
24/02:30am 24.6 28.8 23.4 93 0.8 SSE 7 11 4 6 - - 4.4
24/02:00am 24.6 28.7 23.0 91 1.1 SSE 6 9 3 5 - - 0.0
24/01:30am 25.1 29.3 23.2 89 1.3 SSE 6 9 3 5 - - 0.0
24/01:00am 25.2 29.3 23.3 89 1.3 SSE 7 13 4 7 - - 0.0
24/12:30am 25.4 29.0 23.1 87 1.6 SSE 9 11 5 6 - - 0.0
24/12:00am 25.7 29.6 23.0 85 1.8 SE 7 13 4 7 - - 0.0
 
Date/Time
EST
Temp
°C
App
Temp
°C
Dew
Point
°C
Rel
Hum
%
Delta-T
°C
Wind Press
QNH
hPa
Press
MSL
hPa
Rain since
9am
mm
Dir  Spd
km/h
Gust
km/h
Spd
kts
Gust
kts
23/11:30pm 26.1 30.0 23.0 83 2.1 SE 7 9 4 5 - - 0.0
23/11:00pm 27.6 30.7 22.8 75 3.3 ESE 11 17 6 9 - - 0.0
23/10:30pm 27.8 30.6 23.0 75 3.3 ESE 13 19 7 10 - - 0.0
23/10:00pm 27.5 30.9 23.3 78 2.9 ESE 11 15 6 8 - - 0.0
23/09:30pm 27.8 30.2 23.6 78 2.9 ESE 17 24 9 13 - - 0.0
23/09:00pm 27.9 30.6 23.5 77 3.0 ESE 15 24 8 13 - - 0.0
23/08:30pm 28.1 30.6 23.2 74 3.3 ESE 15 22 8 12 - - 0.0
23/08:00pm 28.1 30.8 23.5 76 3.2 E 15 22 8 12 - - 0.0
23/07:30pm 28.1 30.4 23.5 76 3.2 ESE 17 24 9 13 - - 0.0
23/07:00pm 28.0 30.7 23.4 76 3.2 ESE 15 20 8 11 - - 0.0
23/06:30pm 28.2 30.8 23.3 75 3.4 ESE 15 26 8 14 - - 0.0
23/06:00pm 28.7 31.0 23.4 73 3.6 ESE 17 26 9 14 - - 0.0
23/05:30pm 29.2 31.6 22.9 69 4.3 ESE 15 26 8 14 - - 0.0
23/05:00pm 29.5 31.7 23.2 69 4.3 ESE 17 26 9 14 - - 0.0
23/04:30pm 29.7 31.1 22.9 67 4.6 ESE 20 28 11 15 - - 0.0
23/04:00pm 29.7 30.5 23.2 68 4.5 ESE 24 32 13 17 - - 0.0
23/03:30pm 29.9 31.5 23.8 70 4.2 ESE 22 35 12 19 - - 0.0
23/03:00pm 30.0 31.5 23.7 69 4.4 ESE 22 33 12 18 - - 0.0
23/02:30pm 30.3 31.9 23.2 65 4.9 ESE 20 32 11 17 - - 0.0
23/02:00pm 30.5 31.7 23.2 65 5.0 ESE 22 33 12 18 - - 0.0
23/01:30pm 30.4 31.3 23.3 66 4.9 SE 24 35 13 19 - - 0.0
23/01:00pm 30.9 32.5 23.8 66 4.9 SE 22 32 12 17 - - 0.0
23/12:30pm 30.4 32.0 23.3 66 4.9 SE 20 32 11 17 - - 0.0
23/12:00pm 30.1 32.0 23.8 69 4.4 SE 20 28 11 15 - - 0.0
23/11:30am 29.4 30.3 22.6 67 4.6 SE 22 33 12 18 - - 0.0
23/11:00am 29.9 30.6 23.6 69 4.3 SE 26 35 14 19 - - 0.0
23/10:30am 29.5 31.0 23.7 71 4.0 SE 22 33 12 18 - - 0.0
23/10:00am 29.1 30.4 23.3 71 4.0 SE 22 33 12 18 - - 0.0
23/09:30am 28.2 30.8 24.0 78 2.9 SSE 17 24 9 13 - - 0.0
23/09:00am 26.6 29.0 23.7 84 2.0 SSE 17 24 9 13 - - 3.8
23/08:30am 26.6 28.4 23.3 82 2.3 SSE 19 28 10 15 - - 3.8
23/08:00am 26.8 29.6 23.7 83 2.1 SSE 15 20 8 11 - - 3.8
23/07:30am 25.6 29.2 23.8 90 1.2 S 11 17 6 9 - - 3.8
23/07:00am 24.6 28.2 23.0 91 1.1 S 9 17 5 9 - - 3.8
23/06:30am 24.5 27.4 23.1 92 0.9 S 13 19 7 10 - - 3.8
23/06:00am 24.9 27.7 23.0 89 1.3 SSE 13 19 7 10 - - 3.6
23/05:30am 24.8 27.6 23.0 90 1.2 S 13 19 7 10 - - 3.6
23/05:00am 25.1 28.4 23.2 89 1.3 S 11 19 6 10 - - 3.6
23/04:30am 24.7 28.8 23.3 92 1.0 ESE 7 11 4 6 - - 3.6
23/04:00am 25.2 29.0 23.4 90 1.2 ESE 9 11 5 6 - - 3.6
23/03:30am 26.5 29.6 22.8 80 2.5 ESE 11 20 6 11 - - 3.6
23/03:00am 26.9 29.8 23.2 80 2.5 ESE 13 22 7 12 - - 3.6
23/02:30am 27.1 29.7 22.7 77 3.0 ESE 13 24 7 13 - - 3.6
23/02:00am 27.2 29.6 23.0 78 2.9 ESE 15 22 8 12 - - 3.6
23/01:30am 27.3 29.9 23.3 79 2.7 SE 15 28 8 15 - - 3.6
23/01:00am 27.3 29.2 23.5 80 2.6 ESE 19 26 10 14 - - 3.6
23/12:30am 27.2 29.6 23.7 81 2.4 ESE 17 28 9 15 - - 3.6
23/12:00am 26.3 31.1 25.1 93 0.8 ENE 9 17 5 9 - - 3.6
 
Date/Time
EST
Temp
°C
App
Temp
°C
Dew
Point
°C
Rel
Hum
%
Delta-T
°C
Wind Press
QNH
hPa
Press
MSL
hPa
Rain since
9am
mm
Dir  Spd
km/h
Gust
km/h
Spd
kts
Gust
kts
22/11:30pm 26.4 29.8 24.1 87 1.6 ESE 13 28 7 15 - - 3.0

Other Formats:

Comma delimited format used in spreadsheet applications
http://www.bom.gov.au/fwo/IDQ60801/IDQ60801.94352.axf

JavaScript Object Notation format (JSON) in row-major order
http://www.bom.gov.au/fwo/IDQ60801/IDQ60801.94352.json